createdAt,value
2022-09-23T00:00:48.335Z,60.40
2022-09-23T00:03:16.246Z,60.69
2022-09-23T00:05:43.250Z,60.72
2022-09-23T00:08:11.222Z,60.81
2022-09-23T00:10:40.929Z,60.82
2022-09-23T00:13:07.731Z,60.58
2022-09-23T00:15:38.449Z,60.54
2022-09-23T00:18:05.076Z,60.55
2022-09-23T00:20:33.106Z,60.51
2022-09-23T00:22:59.571Z,60.53
2022-09-23T00:25:28.284Z,60.68
2022-09-23T00:27:54.779Z,60.78
2022-09-23T00:30:23.611Z,60.57
2022-09-23T00:32:50.206Z,60.73
2022-09-23T00:35:16.705Z,60.81
2022-09-23T00:37:43.156Z,60.71
2022-09-23T00:40:12.791Z,60.67
2022-09-23T00:42:45.629Z,60.71
2022-09-23T00:45:12.163Z,61.00
2022-09-23T00:47:41.382Z,60.95
2022-09-23T00:50:10.678Z,60.73
2022-09-23T00:52:37.694Z,60.74
2022-09-23T00:55:09.609Z,60.73
2022-09-23T00:57:37.275Z,60.82
2022-09-23T01:00:05.106Z,60.55
2022-09-23T01:02:32.876Z,60.56
2022-09-23T01:04:59.552Z,60.37
2022-09-23T01:07:26.001Z,60.65
2022-09-23T01:09:53.096Z,60.86
2022-09-23T01:12:34.774Z,60.90
2022-09-23T01:15:07.192Z,61.12
2022-09-23T01:17:45.605Z,61.41
2022-09-23T01:20:30.379Z,61.21
2022-09-23T01:23:10.318Z,61.05
2022-09-23T01:25:52.161Z,61.27
2022-09-23T01:28:33.652Z,61.18
2022-09-23T01:31:14.744Z,61.17
2022-09-23T01:33:51.173Z,60.90
2022-09-23T01:36:23.875Z,61.29
2022-09-23T01:38:59.190Z,61.09
2022-09-23T01:41:34.200Z,61.30
2022-09-23T01:44:12.505Z,61.28
2022-09-23T01:46:49.284Z,61.09
2022-09-23T01:49:20.163Z,61.40
2022-09-23T01:51:53.384Z,61.45
2022-09-23T01:54:22.835Z,61.32
2022-09-23T01:56:56.340Z,61.50
2022-09-23T01:59:27.275Z,61.54
2022-09-23T02:02:14.276Z,61.41
2022-09-23T02:04:47.302Z,61.64
2022-09-23T02:07:15.275Z,61.44
2022-09-23T02:09:44.074Z,61.55
2022-09-23T02:12:13.867Z,61.59
2022-09-23T02:14:43.144Z,61.78
2022-09-23T02:17:10.595Z,61.73
2022-09-23T02:19:37.033Z,61.54
2022-09-23T02:22:06.203Z,61.53
2022-09-23T02:24:34.812Z,61.88
2022-09-23T02:27:20.190Z,61.63
2022-09-23T02:29:49.289Z,61.74
2022-09-23T02:32:15.792Z,61.70
2022-09-23T02:34:51.617Z,62.02
2022-09-23T02:37:37.245Z,61.88
2022-09-23T02:40:23.583Z,61.63
2022-09-23T02:43:05.953Z,61.61
2022-09-23T02:45:33.841Z,61.76
2022-09-23T02:48:06.038Z,61.66
2022-09-23T02:50:33.162Z,61.71
2022-09-23T02:53:00.783Z,61.64
2022-09-23T02:55:31.356Z,61.57
2022-09-23T02:58:01.827Z,61.43
2022-09-23T03:00:32.886Z,61.55
2022-09-23T03:03:02.142Z,61.23
2022-09-23T03:05:31.622Z,61.46
2022-09-23T03:07:58.613Z,61.46
2022-09-23T03:10:42.070Z,61.52
2022-09-23T03:13:29.600Z,61.54
2022-09-23T03:16:11.042Z,61.56
2022-09-23T03:18:40.936Z,61.82
2022-09-23T03:21:07.402Z,61.84
2022-09-23T03:23:35.900Z,61.81
2022-09-23T03:26:12.370Z,61.78
2022-09-23T03:28:43.732Z,61.63
2022-09-23T03:31:11.738Z,61.81
2022-09-23T03:33:40.795Z,61.51
2022-09-23T03:36:28.529Z,61.59
2022-09-23T03:38:59.470Z,61.67
2022-09-23T03:41:32.209Z,61.69
2022-09-23T03:43:59.581Z,61.83
2022-09-23T03:46:30.962Z,61.86
2022-09-23T03:49:00.859Z,62.14
2022-09-23T03:51:27.410Z,61.88
2022-09-23T03:53:53.967Z,62.26
2022-09-23T03:56:20.456Z,61.90
2022-09-23T03:58:46.994Z,61.79
2022-09-23T04:01:14.895Z,61.67
2022-09-23T04:03:41.759Z,61.79
2022-09-23T04:06:08.445Z,62.02
2022-09-23T04:08:35.206Z,61.90
2022-09-23T04:11:02.045Z,62.08
2022-09-23T04:13:29.514Z,62.08
2022-09-23T04:15:57.183Z,61.87
2022-09-23T04:18:23.881Z,61.92
2022-09-23T04:20:50.329Z,61.81
2022-09-23T04:23:16.898Z,61.92
2022-09-23T04:25:47.112Z,61.65
2022-09-23T04:28:13.780Z,61.61
2022-09-23T04:30:44.374Z,61.80
2022-09-23T04:33:12.243Z,61.89
2022-09-23T04:35:40.290Z,61.75
2022-09-23T04:38:07.414Z,61.92
2022-09-23T04:40:34.335Z,62.09
2022-09-23T04:43:00.973Z,61.92
2022-09-23T04:45:27.502Z,62.13
2022-09-23T04:47:54.483Z,62.05
2022-09-23T04:50:21.197Z,62.33
2022-09-23T04:52:47.725Z,62.33
2022-09-23T04:55:14.231Z,62.24
2022-09-23T04:57:40.793Z,62.34
2022-09-23T05:00:07.644Z,62.43
2022-09-23T05:02:35.773Z,62.08
2022-09-23T05:05:02.901Z,62.72
2022-09-23T05:07:29.472Z,62.36
2022-09-23T05:09:55.957Z,62.40
2022-09-23T05:12:22.464Z,62.37
2022-09-23T05:14:48.936Z,62.25
2022-09-23T05:17:15.640Z,62.28
2022-09-23T05:19:42.622Z,62.38
2022-09-23T05:22:09.308Z,62.07
2022-09-23T05:24:36.283Z,62.30
2022-09-23T05:27:02.889Z,62.33
2022-09-23T05:29:29.423Z,62.51
2022-09-23T05:31:55.937Z,62.11
2022-09-23T05:34:23.351Z,62.16
2022-09-23T05:36:49.939Z,62.38
2022-09-23T05:39:16.430Z,62.36
2022-09-23T05:41:43.618Z,62.10
2022-09-23T05:44:10.406Z,62.35
2022-09-23T05:46:37.105Z,62.26
2022-09-23T05:49:05.660Z,61.96
2022-09-23T05:51:33.043Z,62.29
2022-09-23T05:54:03.027Z,62.24
2022-09-23T05:56:30.312Z,62.10
2022-09-23T05:58:58.025Z,62.38
2022-09-23T06:01:26.137Z,62.42
2022-09-23T06:03:53.387Z,62.36
2022-09-23T06:06:21.720Z,62.26
2022-09-23T06:08:48.740Z,62.52
2022-09-23T06:11:15.308Z,62.13
2022-09-23T06:13:42.110Z,62.39
2022-09-23T06:16:14.959Z,62.15
2022-09-23T06:18:42.492Z,62.17
2022-09-23T06:21:10.878Z,62.14
2022-09-23T06:23:40.803Z,62.11
2022-09-23T06:26:10.286Z,61.86
2022-09-23T06:28:37.824Z,61.75
2022-09-23T06:31:10.851Z,62.13
2022-09-23T06:33:40.010Z,62.23
2022-09-23T06:36:07.400Z,62.17
2022-09-23T06:38:34.345Z,62.06
2022-09-23T06:41:03.702Z,62.17
2022-09-23T08:02:53.253Z,54.33
2022-09-23T08:05:20.015Z,50.92
2022-09-23T08:07:46.733Z,47.67
2022-09-23T08:10:13.406Z,46.23
2022-09-23T08:12:40.096Z,44.29
2022-09-23T08:15:07.292Z,42.79
2022-09-23T08:17:34.599Z,40.65
2022-09-23T08:20:01.458Z,38.68
2022-09-23T08:22:28.221Z,37.00
2022-09-23T08:24:56.612Z,36.62
2022-09-23T08:27:23.602Z,36.06
2022-09-23T08:29:50.291Z,36.57
2022-09-23T08:32:16.934Z,36.02
2022-09-23T08:34:44.073Z,36.00
2022-09-23T08:37:11.386Z,35.78
2022-09-23T08:39:38.167Z,35.52
2022-09-23T08:42:16.379Z,35.13
2022-09-23T08:44:57.763Z,34.89
2022-09-23T08:48:10.807Z,33.91
2022-09-23T08:50:43.085Z,32.86
2022-09-23T08:53:29.658Z,31.96
2022-09-23T08:55:59.575Z,30.61
2022-09-23T08:58:47.810Z,28.84
2022-09-23T09:01:39.380Z,27.89
2022-09-23T09:04:28.163Z,28.05
2022-09-23T09:07:24.582Z,28.58
2022-09-23T09:09:59.614Z,29.11
2022-09-23T09:13:02.621Z,30.22
2022-09-23T09:15:29.555Z,30.63
2022-09-23T09:18:21.450Z,31.62
2022-09-23T09:21:08.647Z,31.55
2022-09-23T09:23:44.395Z,31.97
2022-09-23T09:26:17.137Z,31.13
2022-09-23T09:28:49.075Z,29.82
2022-09-23T09:31:42.531Z,28.93
2022-09-23T09:34:24.479Z,27.85
2022-09-23T09:37:20.833Z,27.45
2022-09-23T09:39:47.574Z,27.84
2022-09-23T09:42:21.159Z,27.93
2022-09-23T09:45:29.752Z,28.74
2022-09-23T09:48:23.314Z,29.75
2022-09-23T09:50:52.264Z,30.28
2022-09-23T09:53:27.746Z,30.75
2022-09-23T09:56:11.172Z,31.77
2022-09-23T09:58:49.959Z,31.47
2022-09-23T10:01:27.647Z,30.45
2022-09-23T10:03:59.178Z,30.01
2022-09-23T10:06:29.571Z,28.50
2022-09-23T10:09:02.300Z,28.26
2022-09-23T10:11:29.861Z,27.93
2022-09-23T10:14:05.580Z,27.15
2022-09-23T10:16:34.618Z,26.36
2022-09-23T10:19:04.106Z,25.26
2022-09-23T10:21:36.891Z,23.98
2022-09-23T10:24:08.233Z,22.48
2022-09-23T10:26:43.008Z,21.48
2022-09-23T10:29:48.302Z,20.94
2022-09-23T10:32:22.646Z,19.98
2022-09-23T10:34:53.429Z,19.34
2022-09-23T10:37:32.265Z,18.82
2022-09-23T10:40:18.618Z,19.31
2022-09-23T10:43:20.904Z,20.58
2022-09-23T10:46:09.007Z,19.79
2022-09-23T10:48:59.395Z,18.90
2022-09-23T10:51:43.860Z,17.24
2022-09-23T10:54:28.372Z,16.53
2022-09-23T10:57:00.514Z,15.32
2022-09-23T10:59:45.277Z,15.30
2022-09-23T11:02:22.071Z,15.67
2022-09-23T11:04:59.077Z,15.71
2022-09-23T11:07:40.352Z,16.67
2022-09-23T11:10:47.111Z,17.92
2022-09-23T11:13:27.978Z,18.80
2022-09-23T11:16:00.486Z,19.49
2022-09-23T11:18:39.161Z,20.09
2022-09-23T11:21:14.687Z,20.87
2022-09-23T11:23:59.788Z,21.71
2022-09-23T11:26:55.554Z,20.73
2022-09-23T11:30:13.638Z,18.45
2022-09-23T11:33:18.123Z,17.56
2022-09-23T11:35:50.848Z,17.22
2022-09-23T11:38:26.404Z,16.91
2022-09-23T11:41:01.831Z,17.17
2022-09-23T11:43:35.586Z,18.57
2022-09-23T11:46:02.314Z,18.69
2022-09-23T11:48:40.346Z,19.31
2022-09-23T11:51:11.388Z,20.46
2022-09-23T11:53:53.431Z,21.37
2022-09-23T11:56:49.473Z,22.46
2022-09-23T11:59:35.371Z,22.80
2022-09-23T12:02:30.620Z,23.48
2022-09-23T12:05:04.590Z,24.14
2022-09-23T12:07:54.182Z,24.13
2022-09-23T12:10:22.289Z,23.82
2022-09-23T12:12:58.878Z,23.10
2022-09-23T12:15:52.485Z,22.09
2022-09-23T12:18:26.152Z,21.37
2022-09-23T12:21:04.826Z,22.33
2022-09-23T12:23:49.021Z,21.65
2022-09-23T12:26:19.835Z,21.42
2022-09-23T12:28:50.405Z,21.59
2022-09-23T12:31:30.726Z,21.60
2022-09-23T12:34:00.322Z,21.04
2022-09-23T12:36:30.152Z,20.48
2022-09-23T12:39:17.837Z,21.23
2022-09-23T12:41:49.308Z,21.81
2022-09-23T12:44:42.047Z,22.93
2022-09-23T12:47:14.993Z,23.56
2022-09-23T12:49:42.679Z,24.52
2022-09-23T12:52:21.514Z,24.83
2022-09-23T12:54:50.458Z,25.42
2022-09-23T12:57:35.738Z,26.62
2022-09-23T13:00:14.400Z,26.76
2022-09-23T13:02:47.014Z,27.17
2022-09-23T13:05:44.496Z,27.76
2022-09-23T13:08:20.800Z,27.94
2022-09-23T13:10:49.799Z,28.13
2022-09-23T13:13:41.884Z,28.34
2022-09-23T13:16:26.296Z,28.23
2022-09-23T13:18:54.748Z,28.57
2022-09-23T13:21:43.879Z,28.57
2022-09-23T13:24:13.580Z,28.91
2022-09-23T13:26:45.761Z,28.80
2022-09-23T13:29:22.400Z,28.95
2022-09-23T13:31:49.356Z,29.08
2022-09-23T13:34:21.528Z,29.26
2022-09-23T13:36:48.994Z,29.24
2022-09-23T13:39:27.841Z,29.69
2022-09-23T13:42:01.041Z,29.58
2022-09-23T13:44:28.869Z,30.43
2022-09-23T13:46:59.716Z,30.59
2022-09-23T13:49:35.249Z,31.31
2022-09-23T13:52:02.908Z,31.79
2022-09-23T13:54:38.261Z,32.17
2022-09-23T13:57:05.088Z,32.63
2022-09-23T13:59:38.044Z,33.12
2022-09-23T14:02:10.790Z,33.44
2022-09-23T14:04:37.604Z,33.34
2022-09-23T14:07:06.927Z,33.28
2022-09-23T14:09:38.036Z,33.20
2022-09-23T14:12:06.608Z,33.29
2022-09-23T14:14:37.200Z,33.57
2022-09-23T14:17:06.706Z,33.79
2022-09-23T14:19:35.929Z,33.72
2022-09-23T14:22:03.831Z,33.65
2022-09-23T14:24:32.293Z,33.64
2022-09-23T14:27:08.633Z,33.93
2022-09-23T14:29:43.914Z,34.31
2022-09-23T14:32:21.162Z,34.28
2022-09-23T14:34:50.669Z,34.66
2022-09-23T14:38:04.540Z,34.85
2022-09-23T14:40:35.268Z,35.08
2022-09-23T14:43:16.668Z,35.19
2022-09-23T14:45:50.619Z,35.46
2022-09-23T14:48:23.623Z,35.50
2022-09-23T14:50:54.973Z,35.95
2022-09-23T14:53:24.605Z,36.26
2022-09-23T14:55:53.137Z,36.46
2022-09-23T14:58:25.695Z,36.76
2022-09-23T15:01:00.163Z,37.61
2022-09-23T15:03:28.617Z,37.65
2022-09-23T15:06:08.879Z,37.44
2022-09-23T15:08:36.085Z,37.28
2022-09-23T15:11:07.851Z,37.34
2022-09-23T15:13:40.730Z,37.21
2022-09-23T15:16:08.290Z,37.05
2022-09-23T15:18:38.054Z,37.13
2022-09-23T15:21:17.898Z,37.55
2022-09-23T15:23:46.274Z,37.34
2022-09-23T15:26:17.050Z,37.10
2022-09-23T15:28:44.791Z,37.47
2022-09-23T15:31:19.973Z,37.41
2022-09-23T15:33:48.404Z,37.59
2022-09-23T15:36:21.775Z,37.76
2022-09-23T15:38:49.899Z,37.96
2022-09-23T15:41:17.986Z,38.11
2022-09-23T15:43:44.687Z,38.23
2022-09-23T15:46:24.048Z,38.25
2022-09-23T15:48:59.076Z,38.51
2022-09-23T15:51:27.124Z,38.69
2022-09-23T15:53:55.597Z,38.97
2022-09-23T15:56:23.543Z,39.42
2022-09-23T15:58:50.965Z,39.78
2022-09-23T16:01:33.178Z,40.29
2022-09-23T16:04:04.012Z,40.35
2022-09-23T16:06:32.528Z,41.07
2022-09-23T16:08:59.156Z,41.76
2022-09-23T16:11:31.190Z,42.42
2022-09-23T16:13:59.594Z,43.05
2022-09-23T16:16:28.175Z,43.53
2022-09-23T16:18:55.231Z,43.84
2022-09-23T16:21:26.553Z,44.44
2022-09-23T16:23:57.828Z,44.54
2022-09-23T16:26:27.429Z,45.29
2022-09-23T16:28:55.805Z,45.53
2022-09-23T16:31:31.497Z,46.23
2022-09-23T16:34:03.669Z,46.41
2022-09-23T16:36:33.792Z,47.11
2022-09-23T16:39:06.225Z,47.09
2022-09-23T16:41:33.694Z,47.22
2022-09-23T16:44:04.568Z,47.85
2022-09-23T16:46:31.918Z,47.84
2022-09-23T16:49:01.725Z,48.38
2022-09-23T16:51:30.047Z,49.02
2022-09-23T16:53:58.943Z,48.96
2022-09-23T16:56:28.947Z,48.99
2022-09-23T16:58:57.643Z,49.66
2022-09-23T17:01:45.766Z,50.06
2022-09-23T17:04:14.714Z,50.12
2022-09-23T17:06:48.437Z,50.50
2022-09-23T17:09:15.192Z,50.38
2022-09-23T17:11:49.147Z,50.73
2022-09-23T17:14:16.743Z,50.83
2022-09-23T17:16:44.240Z,51.05
2022-09-23T17:19:12.385Z,51.42
2022-09-23T17:21:39.773Z,51.61
2022-09-23T17:24:07.119Z,52.01
2022-09-23T17:26:35.529Z,52.18
2022-09-23T17:29:03.596Z,52.28
2022-09-23T17:31:30.842Z,52.12
2022-09-23T17:33:58.234Z,52.41
2022-09-23T17:36:25.681Z,52.46
2022-09-23T17:38:55.594Z,52.82
2022-09-23T17:41:22.115Z,53.16
2022-09-23T17:43:54.918Z,52.79
2022-09-23T17:46:22.685Z,52.98
2022-09-23T17:48:49.901Z,53.10
2022-09-23T17:51:21.720Z,53.56
2022-09-23T17:53:49.841Z,53.60
2022-09-23T17:56:25.096Z,53.73
2022-09-23T17:58:52.837Z,53.94
2022-09-23T18:01:24.884Z,54.15
2022-09-23T18:03:55.911Z,54.22
2022-09-23T18:06:25.216Z,54.34
2022-09-23T18:08:52.503Z,54.54
2022-09-23T18:11:20.671Z,54.62
2022-09-23T18:13:55.812Z,54.56
2022-09-23T18:16:25.679Z,54.68
2022-09-23T18:18:56.301Z,55.18
2022-09-23T18:21:26.438Z,54.69
2022-09-23T18:23:59.770Z,55.22
2022-09-23T18:26:35.262Z,55.30
2022-09-23T18:29:03.805Z,55.32
2022-09-23T18:31:35.176Z,55.55
2022-09-23T18:34:13.481Z,55.53
2022-09-23T18:36:40.523Z,55.78
2022-09-23T18:39:07.362Z,55.76
2022-09-23T18:41:35.213Z,55.84
2022-09-23T18:44:02.630Z,56.24
2022-09-23T18:46:30.653Z,56.50
2022-09-23T18:49:17.010Z,56.02
2022-09-23T18:51:56.483Z,57.13
2022-09-23T18:54:28.138Z,56.50
2022-09-23T18:56:55.452Z,56.52
2022-09-23T18:59:26.535Z,56.99
2022-09-23T19:01:56.754Z,56.77
2022-09-23T19:04:25.360Z,57.01
2022-09-23T19:06:54.003Z,57.09
2022-09-23T19:09:20.967Z,56.75
2022-09-23T19:11:51.914Z,57.12
2022-09-23T19:14:19.154Z,56.98
2022-09-23T19:16:46.030Z,56.97
2022-09-23T19:19:12.713Z,57.13
2022-09-23T19:21:39.501Z,57.33
2022-09-23T19:24:08.227Z,57.44
2022-09-23T19:26:40.407Z,57.38
2022-09-23T19:29:15.482Z,57.38
2022-09-23T19:31:43.476Z,57.59
2022-09-23T19:34:29.270Z,57.87
2022-09-23T19:36:58.063Z,57.99
2022-09-23T19:39:28.030Z,58.58
2022-09-23T19:41:56.007Z,58.77
2022-09-23T19:44:25.210Z,58.32
2022-09-23T19:46:56.340Z,58.11
2022-09-23T19:49:25.001Z,58.52
2022-09-23T19:51:53.323Z,58.47
2022-09-23T19:54:20.959Z,58.45
2022-09-23T19:56:50.891Z,59.06
2022-09-23T19:59:19.376Z,58.72
2022-09-23T20:01:47.562Z,59.11
2022-09-23T20:04:16.024Z,58.69
2022-09-23T20:06:43.317Z,58.96
2022-09-23T20:09:10.339Z,58.77
2022-09-23T20:11:37.310Z,58.83
2022-09-23T20:14:06.226Z,58.73
2022-09-23T20:16:35.472Z,58.80
2022-09-23T20:19:04.427Z,58.96
2022-09-23T20:21:31.858Z,59.54
2022-09-23T20:23:58.739Z,59.50
2022-09-23T20:26:43.950Z,59.15
2022-09-23T20:29:11.445Z,59.13
2022-09-23T20:31:40.507Z,59.53
2022-09-23T20:34:10.871Z,59.13
2022-09-23T20:36:40.636Z,59.31
2022-09-23T20:39:08.590Z,59.49
2022-09-23T20:41:38.099Z,59.50
2022-09-23T20:44:07.884Z,59.63
2022-09-23T20:46:36.021Z,59.17
2022-09-23T20:49:09.238Z,59.67
2022-09-23T20:51:39.419Z,59.33
2022-09-23T20:54:07.347Z,59.81
2022-09-23T20:56:34.027Z,59.31
2022-09-23T20:59:02.059Z,59.52
2022-09-23T21:01:29.756Z,59.76
2022-09-23T21:03:56.519Z,59.83
2022-09-23T21:06:26.392Z,59.69
2022-09-23T21:08:54.706Z,59.89
2022-09-23T21:11:22.220Z,59.55
2022-09-23T21:13:51.978Z,59.73
2022-09-23T21:16:22.239Z,60.01
2022-09-23T21:18:50.597Z,60.36
2022-09-23T21:21:19.778Z,60.29
2022-09-23T21:23:47.996Z,60.16
2022-09-23T21:26:20.475Z,60.12
2022-09-23T21:28:58.590Z,60.09
2022-09-23T21:31:28.109Z,60.60
2022-09-23T21:34:01.893Z,60.37
2022-09-23T21:36:30.560Z,60.66
2022-09-23T21:38:58.160Z,61.09
2022-09-23T21:41:25.436Z,60.88
2022-09-23T21:43:52.194Z,61.29
2022-09-23T21:46:20.805Z,60.46
2022-09-23T21:48:50.821Z,60.70
2022-09-23T21:51:23.342Z,60.85
2022-09-23T21:53:50.043Z,60.82
2022-09-23T21:56:37.812Z,60.96
2022-09-23T21:59:05.439Z,60.79
2022-09-23T22:01:35.222Z,60.83
2022-09-23T22:04:09.302Z,60.73
2022-09-23T22:06:38.393Z,60.78
2022-09-23T22:09:09.033Z,61.06
2022-09-23T22:11:55.629Z,60.88
2022-09-23T22:14:26.402Z,60.75
2022-09-23T22:16:58.557Z,60.70
2022-09-23T22:19:44.369Z,61.01
2022-09-23T22:22:16.758Z,60.85
2022-09-23T22:24:43.954Z,60.95
2022-09-23T22:27:12.279Z,60.89
2022-09-23T22:29:57.754Z,60.97
2022-09-23T22:32:43.873Z,60.74
2022-09-23T22:35:13.952Z,60.67
2022-09-23T22:37:40.488Z,61.22
2022-09-23T22:40:10.212Z,61.12
2022-09-23T22:42:37.662Z,61.29
2022-09-23T22:45:06.183Z,61.25
2022-09-23T22:47:37.311Z,61.18
2022-09-23T22:50:07.156Z,61.36
2022-09-23T22:52:33.957Z,61.60
2022-09-23T22:55:01.537Z,61.54
2022-09-23T22:57:28.863Z,61.77
2022-09-23T22:59:55.718Z,62.06
2022-09-23T23:02:23.856Z,61.94
2022-09-23T23:04:51.392Z,61.90
2022-09-23T23:07:21.258Z,61.50
2022-09-23T23:09:51.297Z,62.00
2022-09-23T23:12:20.592Z,61.65
2022-09-23T23:14:48.572Z,61.38
2022-09-23T23:17:15.838Z,61.93
2022-09-23T23:19:42.535Z,61.97
2022-09-23T23:22:09.194Z,61.95
2022-09-23T23:24:35.873Z,61.94
2022-09-23T23:27:02.526Z,61.61
2022-09-23T23:29:29.242Z,61.97
2022-09-23T23:31:57.303Z,62.31
2022-09-23T23:34:24.004Z,61.93
2022-09-23T23:36:57.625Z,61.95
2022-09-23T23:39:25.671Z,62.32
2022-09-23T23:41:56.907Z,62.06
2022-09-23T23:44:25.036Z,62.38
2022-09-23T23:46:54.404Z,62.67
2022-09-23T23:49:21.711Z,62.68
2022-09-23T23:51:48.782Z,62.34
2022-09-23T23:54:15.550Z,62.68
2022-09-23T23:56:42.406Z,62.39
2022-09-23T23:59:09.027Z,62.64
